Kona International At Keahole Airport Kailua/Kona US
ICAO: PHKO
IATA: KOA
Category: Medium
Scheduled Services:

Elevation: 47 ft
TransAlt. 18000 ft.

Airport Communications:
ATIS:127.4
CLNC DEL:121.9
HONOLULU CNTR:126
CTAF:120.3
HONOLULU:123.6
TWR:120.3

PHKO Zoom In..

If Map Doesn't Load, Click Here

Runways:

(A) RW 17 length 11000 ft width 150 ft
ILS 109.70 / hdg 174

(B) RW 35 length 11000 ft width 150 ft
---- / hdg 354

Location; PHKO
Day. 24 / Time. 05.53 Zulu
* Altimeter: 29.86
* Temperature: 27° c. 80.6°f.
* Wind from: 200° Speed 06 kn.
Dewpoint: 22° c.
Visibility: 10 Statute Miles.
Clouds: Few 5000 ft.

PHKO 240553Z 20006KT 10SM FEW050 27/22 A2986 RMK AO2 SLP113 T02720217 10306 20272 51019


Wind From 200°
Speed 06 kn.

 
 
jpsmedia.com for Web Design worldairports.se 2018   terms of use